Time;durP1;ratioP1;P1;durP2;ratioP2;P2;SDS_P1;SDS_P2;PMS_P1;PMS_P2;Temp;Humidity;BMP_temperature;BMP_pressure;BME280_temperature;BME280_humidity;BME280_pressure;Samples;Min_cycle;Max_cycle;Signal;HPM_P1;HPM_P2
2021/01/14 00:00:32;;;;;;;7.07;1.08;;;3.50;99.90;;;;;;6192340;23;20009;-93
2021/01/14 00:02:58;;;;;;;4.03;0.75;;;3.50;99.90;;;;;;6218916;23;20035;-93
2021/01/14 00:05:27;;;;;;;5.68;0.93;;;3.50;99.90;;;;;;6192074;23;20005;-94
2021/01/14 00:07:57;;;;;;;5.18;0.70;;;3.50;99.90;;;;;;6191197;23;20008;-95
2021/01/14 00:10:24;;;;;;;7.97;1.23;;;3.50;99.90;;;;;;6167745;23;20013;-92
2021/01/14 00:12:51;;;;;;;6.18;1.10;;;3.40;99.90;;;;;;6190685;23;20009;-93
2021/01/14 00:15:22;;;;;;;5.50;0.63;;;3.40;99.90;;;;;;6192263;23;20084;-93
2021/01/14 00:17:50;;;;;;;;;;;3.40;99.90;;;;;;6168714;23;20009;-92
2021/01/14 00:20:19;;;;;;;3.75;0.60;;;3.30;99.90;;;;;;6191720;23;19906;-93
2021/01/14 00:22:46;;;;;;;5.22;0.95;;;3.30;99.90;;;;;;6193070;23;20424;-93
2021/01/14 00:25:16;;;;;;;4.75;0.70;;;3.30;99.90;;;;;;6194841;23;20060;-92
2021/01/14 00:27:43;;;;;;;4.10;0.90;;;3.30;99.90;;;;;;6167755;23;20012;-92
2021/01/14 00:30:24;;;;;;;5.78;0.85;;;3.30;99.90;;;;;;6192038;23;20017;-93
2021/01/14 00:32:50;;;;;;;2.67;0.88;;;3.20;99.90;;;;;;6190690;23;20035;-95
2021/01/14 00:35:16;;;;;;;4.13;0.75;;;3.20;99.90;;;;;;6187295;23;20005;-94
2021/01/14 00:37:51;;;;;;;4.40;0.65;;;3.30;99.90;;;;;;6188128;23;20011;-93
2021/01/14 00:40:30;;;;;;;3.75;0.98;;;3.20;99.90;;;;;;6216396;23;20005;-93
2021/01/14 00:43:09;;;;;;;7.30;0.88;;;3.20;99.90;;;;;;6215845;23;20015;-94
2021/01/14 00:45:55;;;;;;;4.57;0.88;;;3.20;99.90;;;;;;6213353;23;20020;-94
2021/01/14 00:48:21;;;;;;;6.82;1.02;;;3.20;99.90;;;;;;6228859;23;20027;-94
2021/01/14 00:50:50;;;;;;;5.15;0.80;;;3.20;99.90;;;;;;6217516;23;19997;-94
2021/01/14 00:53:16;;;;;;;4.97;0.82;;;3.20;99.90;;;;;;6220639;23;20063;-94
2021/01/14 00:55:42;;;;;;;5.03;0.75;;;3.10;99.90;;;;;;6219832;23;20429;-95
2021/01/14 00:58:13;;;;;;;3.63;0.75;;;3.10;99.90;;;;;;6219726;23;20011;-96
2021/01/14 01:00:40;;;;;;;4.93;1.00;;;3.00;99.90;;;;;;6220053;23;20083;-95
2021/01/14 01:03:09;;;;;;;4.95;1.13;;;3.00;99.90;;;;;;6245763;23;20058;-95
2021/01/14 01:05:36;;;;;;;5.68;0.70;;;3.00;99.90;;;;;;6219551;23;20007;-95
2021/01/14 01:08:03;;;;;;;7.20;0.80;;;2.90;99.90;;;;;;6193933;23;20020;-95
2021/01/14 01:10:29;;;;;;;2.80;0.63;;;2.90;99.90;;;;;;6168462;23;20027;-94
2021/01/14 01:12:58;;;;;;;8.48;0.88;;;2.90;99.90;;;;;;6219033;23;20055;-93
2021/01/14 01:15:31;;;;;;;2.92;0.60;;;2.80;99.90;;;;;;6194243;23;20015;-93
2021/01/14 01:17:59;;;;;;;4.93;0.63;;;2.80;99.90;;;;;;6208306;23;20012;-96
2021/01/14 01:20:26;;;;;;;3.47;0.47;;;2.70;99.90;;;;;;6216922;23;20055;-94
2021/01/14 01:23:04;;;;;;;2.75;0.57;;;2.70;99.90;;;;;;6218810;23;20000;-94
2021/01/14 01:25:31;;;;;;;3.17;0.50;;;2.60;99.90;;;;;;6243498;23;20464;-94
2021/01/14 01:27:58;;;;;;;3.38;0.60;;;2.60;99.90;;;;;;6194559;23;20023;-95
2021/01/14 01:30:24;;;;;;;4.43;0.55;;;2.50;99.90;;;;;;6196062;23;20036;-95
2021/01/14 01:32:51;;;;;;;3.22;0.77;;;2.50;99.90;;;;;;6197168;23;20146;-94
2021/01/14 01:35:18;;;;;;;3.60;1.10;;;2.50;99.90;;;;;;6220906;23;20059;-94
2021/01/14 01:37:45;;;;;;;6.13;0.80;;;2.50;99.90;;;;;;6171523;23;20008;-94
2021/01/14 01:40:35;;;;;;;4.10;0.50;;;2.40;99.90;;;;;;6221707;23;20047;-92
2021/01/14 01:43:07;;;;;;;5.10;0.88;;;2.40;99.90;;;;;;6268809;22;20051;-92
2021/01/14 01:45:34;;;;;;;2.80;0.60;;;2.40;99.90;;;;;;6244987;22;20042;-94
2021/01/14 01:48:04;;;;;;;4.47;0.47;;;2.40;99.90;;;;;;6243489;22;20020;-92
2021/01/14 01:50:33;;;;;;;2.45;0.80;;;2.50;99.90;;;;;;6241199;23;20008;-93
2021/01/14 01:52:58;;;;;;;3.70;0.68;;;2.50;99.90;;;;;;6237714;23;20368;-93
2021/01/14 01:55:37;;;;;;;;;;;;;;;;;;;;;
2021/01/14 01:58:05;;;;;;;3.53;0.70;;;2.50;99.90;;;;;;6219938;23;20070;-92
2021/01/14 02:00:31;;;;;;;7.18;0.88;;;2.50;99.90;;;;;;6216968;23;20008;-92
2021/01/14 02:02:57;;;;;;;3.95;0.60;;;2.50;99.90;;;;;;6220133;23;20008;-92
2021/01/14 02:05:25;;;;;;;4.10;0.65;;;2.50;99.90;;;;;;6219931;23;20387;-92
2021/01/14 02:08:20;;;;;;;3.63;0.73;;;2.50;99.90;;;;;;6223096;23;20004;-92
2021/01/14 02:11:08;;;;;;;3.10;0.45;;;2.50;99.90;;;;;;6224991;23;19996;-92
2021/01/14 02:13:40;;;;;;;4.72;0.60;;;2.50;99.90;;;;;;6251951;23;20000;-92
2021/01/14 02:16:10;;;;;;;2.65;0.60;;;2.40;99.90;;;;;;6225063;23;20004;-92
2021/01/14 02:18:38;;;;;;;3.25;0.50;;;2.40;99.90;;;;;;6225088;23;20005;-92
2021/01/14 02:21:06;;;;;;;6.28;1.02;;;2.40;99.90;;;;;;6199693;23;20008;-92
2021/01/14 02:24:08;;;;;;;3.28;0.55;;;2.40;99.90;;;;;;6224175;23;20004;-92
2021/01/14 02:26:53;;;;;;;1.63;0.30;;;2.40;99.90;;;;;;6248666;23;20007;-91
2021/01/14 02:29:23;;;;;;;3.83;1.13;;;2.40;99.90;;;;;;6199629;23;20016;-92
2021/01/14 02:31:49;;;;;;;4.68;0.60;;;2.40;99.90;;;;;;6225286;23;20011;-92
2021/01/14 02:34:16;;;;;;;2.70;0.60;;;2.40;99.90;;;;;;6224753;23;20004;-91
2021/01/14 02:36:42;;;;;;;5.20;0.85;;;2.40;99.90;;;;;;6220650;23;20066;-91
2021/01/14 02:39:08;;;;;;;4.40;0.60;;;2.40;99.90;;;;;;6224502;23;20064;-90
2021/01/14 02:41:33;;;;;;;2.58;0.50;;;2.40;99.90;;;;;;6224253;23;20417;-90
2021/01/14 02:43:59;;;;;;;5.97;0.70;;;2.50;99.90;;;;;;6199578;23;20100;-91
2021/01/14 02:46:27;;;;;;;4.75;0.90;;;2.40;99.90;;;;;;6199594;23;20039;-92
2021/01/14 02:49:06;;;;;;;5.63;0.80;;;2.40;99.90;;;;;;6204703;23;20024;-92
2021/01/14 02:51:42;;;;;;;4.60;0.68;;;2.40;99.90;;;;;;6194199;23;20012;-91
2021/01/14 02:54:11;;;;;;;2.33;0.50;;;2.50;99.90;;;;;;6221756;23;20413;-91
2021/01/14 02:56:43;;;;;;;2.17;0.45;;;2.50;99.90;;;;;;6169651;23;20008;-91
2021/01/14 02:59:09;;;;;;;3.50;0.50;;;2.50;99.90;;;;;;6170203;23;20044;-93
2021/01/14 03:01:36;;;;;;;3.67;0.30;;;2.50;99.90;;;;;;6219302;23;20008;-91
2021/01/14 03:04:03;;;;;;;3.47;0.50;;;2.40;99.90;;;;;;6220648;23;20314;-92
2021/01/14 03:06:29;;;;;;;2.85;0.50;;;2.50;99.90;;;;;;6169630;23;20005;-93
2021/01/14 03:08:57;;;;;;;3.10;0.50;;;2.40;99.90;;;;;;6221026;23;20009;-92
2021/01/14 03:11:26;;;;;;;2.50;0.63;;;2.40;99.90;;;;;;6145297;23;20047;-90
2021/01/14 03:13:53;;;;;;;4.43;0.90;;;2.40;99.90;;;;;;6167918;23;20043;-93
2021/01/14 03:16:20;;;;;;;1.45;0.50;;;2.40;99.90;;;;;;6219327;23;20008;-92
2021/01/14 03:18:50;;;;;;;7.22;0.50;;;2.30;99.90;;;;;;6192594;23;20062;-92
2021/01/14 03:21:32;;;;;;;2.08;0.50;;;2.30;99.90;;;;;;6175334;23;20009;-92
2021/01/14 03:23:58;;;;;;;4.07;0.47;;;2.30;99.90;;;;;;6194169;23;20036;-91
2021/01/14 03:26:26;;;;;;;3.15;0.45;;;2.20;99.90;;;;;;6192982;23;20008;-91
2021/01/14 03:28:55;;;;;;;3.50;0.50;;;2.10;99.90;;;;;;6144574;23;20013;-92
2021/01/14 03:31:22;;;;;;;1.58;0.30;;;2.10;99.90;;;;;;6192780;23;20036;-91
2021/01/14 03:33:49;;;;;;;3.05;0.43;;;2.10;99.90;;;;;;6167703;23;20013;-92
2021/01/14 03:36:17;;;;;;;2.67;0.50;;;2.00;99.90;;;;;;6167737;23;20344;-92
2021/01/14 03:38:43;;;;;;;4.15;0.60;;;1.90;99.90;;;;;;6192807;23;20036;-93
2021/01/14 03:41:18;;;;;;;2.38;0.35;;;1.90;99.90;;;;;;6189783;23;20013;-92
2021/01/14 03:43:45;;;;;;;3.25;1.05;;;1.80;99.90;;;;;;6192910;23;20009;-92
2021/01/14 03:46:22;;;;;;;2.08;0.40;;;1.80;99.90;;;;;;6192187;23;20102;-93
2021/01/14 03:48:49;;;;;;;3.28;0.38;;;1.80;99.90;;;;;;6218083;23;20017;-92
2021/01/14 03:51:22;;;;;;;2.45;0.45;;;1.70;99.90;;;;;;6143555;23;20028;-93
2021/01/14 03:53:49;;;;;;;;;;;1.70;99.90;;;;;;6168341;23;20480;-93
2021/01/14 03:56:16;;;;;;;2.42;0.57;;;1.70;99.90;;;;;;6192686;23;19911;-92
2021/01/14 03:58:42;;;;;;;1.33;0.50;;;1.70;99.90;;;;;;6192445;23;20013;-91
2021/01/14 04:01:10;;;;;;;3.38;0.40;;;1.70;99.90;;;;;;6218981;23;20008;-92
2021/01/14 04:03:43;;;;;;;3.00;0.40;;;1.70;99.90;;;;;;6192994;23;20008;-92
2021/01/14 04:06:11;;;;;;;3.35;0.40;;;1.70;99.90;;;;;;6166623;23;20082;-92
2021/01/14 04:08:37;;;;;;;2.08;0.40;;;1.70;99.90;;;;;;6167359;23;20028;-92
2021/01/14 04:11:04;;;;;;;2.85;0.50;;;1.70;99.90;;;;;;6192131;23;20055;-91
2021/01/14 04:13:32;;;;;;;0.80;0.30;;;1.70;99.90;;;;;;6192550;23;20372;-92
2021/01/14 04:15:59;;;;;;;4.00;0.50;;;1.70;99.90;;;;;;6219151;23;20008;-93
2021/01/14 04:18:24;;;;;;;2.78;0.40;;;1.70;99.90;;;;;;6166975;23;20108;-92
2021/01/14 04:20:52;;;;;;;2.58;0.40;;;1.70;99.90;;;;;;6192424;23;20004;-91
2021/01/14 04:23:19;;;;;;;1.17;0.40;;;1.70;99.90;;;;;;6192348;23;20008;-91
2021/01/14 04:25:48;;;;;;;4.72;0.65;;;1.70;99.90;;;;;;6206323;23;20055;-92
2021/01/14 04:28:16;;;;;;;4.82;0.60;;;1.60;99.90;;;;;;6191915;23;20095;-92
2021/01/14 04:30:42;;;;;;;1.85;0.40;;;1.60;99.90;;;;;;6168143;23;20095;-92
2021/01/14 04:33:12;;;;;;;3.78;0.60;;;1.60;99.90;;;;;;6218370;23;20001;-92
2021/01/14 04:36:00;;;;;;;2.00;0.52;;;1.60;99.90;;;;;;6193445;23;20001;-92
2021/01/14 04:38:30;;;;;;;2.28;0.50;;;1.60;99.90;;;;;;6167516;23;20004;-92
2021/01/14 04:41:08;;;;;;;2.47;0.40;;;1.70;99.90;;;;;;6193239;23;20009;-91
2021/01/14 04:43:37;;;;;;;2.85;0.50;;;1.70;99.90;;;;;;6192487;23;20005;-92
2021/01/14 04:46:16;;;;;;;2.60;0.50;;;1.70;99.90;;;;;;6192714;23;20016;-92
2021/01/14 04:48:48;;;;;;;2.35;0.52;;;1.70;99.90;;;;;;6191139;23;20021;-92
2021/01/14 04:51:20;;;;;;;2.45;0.68;;;1.60;99.90;;;;;;6192153;23;20007;-93
2021/01/14 04:53:48;;;;;;;4.90;0.52;;;1.50;99.90;;;;;;6220372;23;20521;-92
2021/01/14 04:56:17;;;;;;;4.28;0.60;;;1.50;99.90;;;;;;6195354;23;20008;-92
2021/01/14 04:58:47;;;;;;;1.30;0.40;;;1.40;99.90;;;;;;6170122;23;20012;-92
2021/01/14 05:01:25;;;;;;;2.63;0.45;;;1.40;99.90;;;;;;6190814;23;20059;-92
2021/01/14 05:03:54;;;;;;;1.55;0.30;;;1.40;99.90;;;;;;6169824;23;20004;-91
2021/01/14 05:06:26;;;;;;;3.13;0.43;;;1.40;99.90;;;;;;6193834;23;20004;-93
2021/01/14 05:09:14;;;;;;;1.63;0.50;;;1.40;99.90;;;;;;6168504;23;20013;-94
2021/01/14 05:11:45;;;;;;;2.53;0.40;;;1.40;99.90;;;;;;6194099;23;20013;-92
2021/01/14 05:14:12;;;;;;;2.15;0.38;;;1.40;99.90;;;;;;6193748;23;20004;-92
2021/01/14 05:16:43;;;;;;;2.97;0.60;;;1.40;99.90;;;;;;6160623;23;20012;-92
2021/01/14 05:19:09;;;;;;;1.25;0.55;;;1.40;99.90;;;;;;6168133;23;20059;-93
2021/01/14 05:21:46;;;;;;;1.67;0.68;;;1.50;99.90;;;;;;6191459;23;20341;-93
2021/01/14 05:24:30;;;;;;;2.80;0.43;;;1.40;99.90;;;;;;6218948;23;20062;-93
2021/01/14 05:26:57;;;;;;;5.00;0.60;;;1.40;99.90;;;;;;6192306;23;20008;-91
2021/01/14 05:29:23;;;;;;;3.25;0.75;;;1.50;99.90;;;;;;6191823;23;20011;-92
2021/01/14 05:31:50;;;;;;;2.45;0.57;;;1.50;99.90;;;;;;6166709;23;20013;-92
2021/01/14 05:34:19;;;;;;;3.38;0.60;;;1.50;99.90;;;;;;6167771;23;20005;-94
2021/01/14 05:37:07;;;;;;;3.25;0.52;;;1.50;99.90;;;;;;6218051;23;20011;-92
2021/01/14 05:40:04;;;;;;;2.28;0.50;;;1.50;99.90;;;;;;6192815;23;20005;-94
2021/01/14 05:42:45;;;;;;;3.08;0.60;;;1.50;99.90;;;;;;6166251;23;20009;-93
2021/01/14 05:45:35;;;;;;;2.40;0.52;;;1.40;99.90;;;;;;6169817;23;20015;-94
2021/01/14 05:48:13;;;;;;;2.35;0.40;;;1.40;99.90;;;;;;6195130;23;20009;-94
2021/01/14 05:50:44;;;;;;;2.42;0.50;;;1.50;99.90;;;;;;6222027;23;20484;-93
2021/01/14 05:53:51;;;;;;;3.20;0.50;;;1.40;99.90;;;;;;6223085;23;20441;-93
2021/01/14 05:56:43;;;;;;;1.77;0.50;;;1.50;99.90;;;;;;6222584;23;20019;-94
2021/01/14 05:59:36;;;;;;;1.00;0.43;;;1.40;99.90;;;;;;6249599;23;20035;-94
2021/01/14 06:02:27;;;;;;;3.70;0.63;;;1.50;99.90;;;;;;6245904;23;20008;-92
2021/01/14 06:05:26;;;;;;;2.83;0.50;;;1.50;99.90;;;;;;6197685;23;20022;-92
2021/01/14 06:08:04;;;;;;;7.00;1.00;;;1.50;99.90;;;;;;6095539;23;20006;-92
2021/01/14 06:10:42;;;;;;;3.73;0.83;;;1.50;99.90;;;;;;6190281;23;20030;-92
2021/01/14 06:13:30;;;;;;;4.35;0.65;;;1.50;99.90;;;;;;6220911;23;20243;-93
2021/01/14 06:16:08;;;;;;;3.25;0.70;;;1.50;99.90;;;;;;6249213;23;20012;-93
2021/01/14 06:18:51;;;;;;;;;;;;;;;;;;;;;
2021/01/14 06:22:07;;;;;;;3.97;0.50;;;1.50;99.90;;;;;;6271750;23;20007;-94
2021/01/14 06:28:45;;;;;;;2.45;0.70;;;1.50;99.90;;;;;;6246330;23;20031;-94
2021/01/14 06:31:35;;;;;;;3.85;0.60;;;1.50;99.90;;;;;;6227847;23;20074;-92
2021/01/14 06:34:27;;;;;;;1.88;0.40;;;1.50;99.90;;;;;;6223553;23;20004;-95
2021/01/14 06:37:32;;;;;;;2.45;0.60;;;1.40;99.90;;;;;;6247481;23;20099;-95
2021/01/14 06:40:06;;;;;;;1.35;0.50;;;1.50;99.90;;;;;;6163256;23;20160;-93
2021/01/14 06:43:00;;;;;;;5.50;0.60;;;1.50;99.90;;;;;;6221146;23;20004;-94
2021/01/14 06:45:44;;;;;;;;;;;1.50;99.90;;;;;;6226625;23;20380;-94
2021/01/14 06:48:21;;;;;;;;;;;1.50;99.90;;;;;;6246359;23;20029;-93
2021/01/14 06:51:16;;;;;;;1.33;0.40;;;1.40;99.90;;;;;;6238252;23;19918;-93
2021/01/14 06:54:01;;;;;;;4.68;1.33;;;1.50;99.90;;;;;;6225113;23;20016;-95
2021/01/14 06:57:10;;;;;;;3.70;0.60;;;1.50;99.90;;;;;;6223045;23;20010;-93
2021/01/14 07:00:40;;;;;;;2.92;0.88;;;1.50;99.90;;;;;;6128589;23;20423;-94
2021/01/14 07:03:54;;;;;;;3.63;0.70;;;1.50;99.90;;;;;;6040068;23;20022;-93
2021/01/14 07:06:39;;;;;;;4.68;0.60;;;1.50;99.90;;;;;;6104360;23;20335;-96
2021/01/14 07:09:27;;;;;;;3.03;0.80;;;1.40;99.90;;;;;;6058950;23;20053;-94
2021/01/14 07:12:07;;;;;;;4.55;0.90;;;1.50;99.90;;;;;;6127965;23;20014;-94
2021/01/14 07:15:01;;;;;;;4.30;0.70;;;1.40;99.90;;;;;;6104535;23;20041;-94
2021/01/14 07:21:50;;;;;;;2.70;0.50;;;1.50;99.90;;;;;;6229177;23;20004;-94
2021/01/14 07:24:29;;;;;;;1.70;0.57;;;1.50;99.90;;;;;;6223566;23;20020;-93
2021/01/14 07:27:25;;;;;;;1.40;0.60;;;1.40;99.90;;;;;;6223493;23;20012;-93
2021/01/14 07:30:10;;;;;;;3.65;0.68;;;1.50;99.90;;;;;;6223379;23;20421;-95
2021/01/14 07:33:05;;;;;;;3.15;0.50;;;1.50;99.90;;;;;;6200377;23;20076;-95
2021/01/14 07:36:17;;;;;;;2.90;0.60;;;1.50;99.90;;;;;;6222947;23;20036;-95
2021/01/14 07:42:31;;;;;;;3.20;0.80;;;1.50;99.90;;;;;;6250168;23;20058;-93
2021/01/14 07:45:36;;;;;;;1.77;0.47;;;1.50;99.90;;;;;;6249702;23;20004;-93
2021/01/14 07:48:43;;;;;;;;;;;;;;;;;;;;;
2021/01/14 07:51:52;;;;;;;1.05;0.40;;;1.50;99.90;;;;;;6219139;23;20099;-93
2021/01/14 07:54:51;;;;;;;2.35;0.40;;;1.50;99.90;;;;;;6192864;23;20158;-94
2021/01/14 07:58:38;;;;;;;3.13;0.70;;;1.50;99.90;;;;;;6195091;23;20012;-94
2021/01/14 08:02:06;;;;;;;1.90;0.68;;;1.50;99.90;;;;;;6184026;23;20009;-95
2021/01/14 08:05:21;;;;;;;2.63;0.80;;;1.50;99.90;;;;;;6219504;23;20009;-95
2021/01/14 08:08:42;;;;;;;;;;;;;;;;;;;;;
2021/01/14 08:12:32;;;;;;;;;;;;;;;;;;;;;
2021/01/14 08:15:50;;;;;;;3.03;0.98;;;1.60;99.90;;;;;;6074661;23;20038;-95
2021/01/14 08:19:07;;;;;;;3.00;1.00;;;1.60;99.90;;;;;;6049931;23;20002;-93
2021/01/14 08:33:03;;;;;;;;;;;;;;;;;;;;;
2021/01/14 08:47:09;;;;;;;2.88;0.68;;;1.90;99.90;;;;;;5798830;24;20100;-94
2021/01/14 08:50:28;;;;;;;;;;;;;;;;;;;;;
2021/01/14 08:58:10;;;;;;;;;;;;;;;;;;;;;
2021/01/14 09:01:04;;;;;;;;;;;;;;;;;;;;;
2021/01/14 09:04:20;;;;;;;;;;;;;;;;;;;;;
2021/01/14 09:09:52;;;;;;;6.20;1.20;;;2.10;99.90;;;;;;5113771;27;20351;-91
2021/01/14 09:12:37;;;;;;;7.47;1.25;;;2.30;99.90;;;;;;5113294;28;20070;-92
2021/01/14 09:15:40;;;;;;;7.30;1.38;;;2.80;99.90;;;;;;5115326;28;20070;-92
2021/01/14 09:18:06;;;;;;;3.33;1.00;;;4.00;99.90;;;;;;5133241;28;20066;-92
2021/01/14 09:23:53;;;;;;;5.38;1.20;;;6.00;99.90;;;;;;5112391;23;20061;-93
2021/01/14 09:26:53;;;;;;;5.68;1.48;;;5.90;99.90;;;;;;5054101;22;20077;-93
2021/01/14 09:29:34;;;;;;;7.28;1.90;;;5.40;99.90;;;;;;5022927;28;20034;-94
2021/01/14 09:32:13;;;;;;;7.13;2.20;;;5.00;99.90;;;;;;5017960;28;20104;-93
2021/01/14 09:34:54;;;;;;;8.60;2.15;;;4.60;99.90;;;;;;5034015;28;20030;-93
2021/01/14 09:37:40;;;;;;;6.63;2.05;;;4.40;99.90;;;;;;5030658;28;20037;-93
2021/01/14 09:40:21;;;;;;;8.52;2.05;;;4.30;99.90;;;;;;5032271;28;20021;-95
2021/01/14 09:43:22;;;;;;;5.60;1.92;;;4.30;99.90;;;;;;5033789;28;20029;-95
2021/01/14 09:46:00;;;;;;;4.47;1.85;;;4.30;99.90;;;;;;5036710;28;20124;-94
2021/01/14 09:48:33;;;;;;;6.68;1.55;;;4.40;99.90;;;;;;5017629;28;20048;-92
2021/01/14 09:51:11;;;;;;;7.88;2.00;;;4.50;99.90;;;;;;5016105;28;20033;-93
2021/01/14 09:54:19;;;;;;;4.85;1.85;;;4.40;99.90;;;;;;5035655;28;20034;-92
2021/01/14 09:56:59;;;;;;;7.57;1.90;;;4.30;99.90;;;;;;4979145;28;20212;-93
2021/01/14 09:59:51;;;;;;;7.00;2.65;;;4.40;99.90;;;;;;5017058;28;20136;-92
2021/01/14 10:02:36;;;;;;;7.40;2.17;;;4.80;99.90;;;;;;5038646;28;20032;-92
2021/01/14 10:05:12;;;;;;;5.78;1.60;;;5.30;99.90;;;;;;5020326;28;20050;-92
2021/01/14 10:07:49;;;;;;;7.53;2.13;;;5.30;99.90;;;;;;5036359;28;20466;-93
2021/01/14 10:10:21;;;;;;;5.55;2.40;;;5.20;99.90;;;;;;5037039;28;20046;-92
2021/01/14 10:13:15;;;;;;;6.25;2.45;;;5.10;99.90;;;;;;5031026;28;20013;-93
2021/01/14 10:16:35;;;;;;;5.45;1.83;;;5.00;99.90;;;;;;5053610;28;20034;-92
2021/01/14 10:19:15;;;;;;;7.30;2.10;;;5.20;99.90;;;;;;5051956;28;20034;-92
2021/01/14 10:21:42;;;;;;;6.07;1.90;;;5.40;99.90;;;;;;5029923;28;20068;-93
2021/01/14 10:24:27;;;;;;;4.70;1.90;;;5.60;99.90;;;;;;5051563;28;20061;-95
2021/01/14 10:27:32;;;;;;;4.15;1.80;;;5.60;99.90;;;;;;5038936;28;20045;-93
2021/01/14 10:30:26;;;;;;;6.07;1.95;;;5.60;99.90;;;;;;5012850;28;20041;-92
2021/01/14 10:33:13;;;;;;;4.88;1.63;;;5.60;99.90;;;;;;5027415;28;20036;-93
2021/01/14 10:35:52;;;;;;;6.50;2.10;;;5.80;99.90;;;;;;5036059;28;20091;-91
2021/01/14 10:38:20;;;;;;;5.18;1.60;;;6.00;99.90;;;;;;5040755;28;20029;-91
2021/01/14 10:40:56;;;;;;;6.80;2.20;;;6.40;99.90;;;;;;5038081;28;20131;-91
2021/01/14 10:43:41;;;;;;;6.25;2.35;;;6.80;99.90;;;;;;5038941;28;20120;-94
2021/01/14 10:46:09;;;;;;;4.85;2.10;;;6.80;99.90;;;;;;5021565;28;20397;-94
2021/01/14 10:48:42;;;;;;;5.90;2.40;;;6.60;99.90;;;;;;5039789;28;20025;-94
2021/01/14 10:51:10;;;;;;;4.10;2.28;;;6.30;99.40;;;;;;5020402;28;20033;-94
2021/01/14 10:53:44;;;;;;;6.13;2.00;;;5.90;99.90;;;;;;5039313;28;20466;-94
2021/01/14 10:56:20;;;;;;;;;;;5.60;99.90;;;;;;5033123;28;20029;-92
2021/01/14 10:58:57;;;;;;;7.07;2.55;;;5.60;99.90;;;;;;5021458;28;19913;-93
2021/01/14 11:01:25;;;;;;;7.38;2.28;;;5.50;99.90;;;;;;5021705;28;20117;-93
2021/01/14 11:04:09;;;;;;;6.25;2.00;;;5.50;99.90;;;;;;5001365;28;20041;-94
2021/01/14 11:07:19;;;;;;;8.48;2.28;;;5.50;99.90;;;;;;5016811;28;20045;-93
2021/01/14 11:09:53;;;;;;;8.18;2.15;;;5.40;99.90;;;;;;4996859;28;20053;-93
2021/01/14 11:12:39;;;;;;;9.00;2.22;;;5.40;99.90;;;;;;4999195;28;20391;-92
2021/01/14 11:15:10;;;;;;;5.90;2.40;;;5.40;99.90;;;;;;4997881;28;20031;-93
2021/01/14 11:17:39;;;;;;;6.85;2.10;;;5.40;99.90;;;;;;4997578;28;20463;-93
2021/01/14 11:20:11;;;;;;;5.57;2.10;;;5.40;99.90;;;;;;4997636;28;20071;-93
2021/01/14 11:22:38;;;;;;;7.03;2.63;;;5.40;99.90;;;;;;5003112;28;20074;-93
2021/01/14 11:25:13;;;;;;;7.45;2.70;;;5.40;99.90;;;;;;4998955;28;20108;-94
2021/01/14 11:28:20;;;;;;;7.38;2.67;;;5.30;99.70;;;;;;5016306;28;20026;-93
2021/01/14 11:30:51;;;;;;;7.13;2.38;;;5.20;99.40;;;;;;5013416;28;20472;-93
2021/01/14 11:33:21;;;;;;;8.50;3.08;;;5.20;99.90;;;;;;4998633;28;20115;-93
2021/01/14 11:35:51;;;;;;;4.22;2.00;;;5.20;99.90;;;;;;5015654;28;20474;-93
2021/01/14 11:38:22;;;;;;;4.82;2.03;;;5.40;99.90;;;;;;5015906;28;20394;-93
2021/01/14 11:41:09;;;;;;;5.25;2.38;;;5.50;99.90;;;;;;5018751;28;20025;-93
2021/01/14 11:43:57;;;;;;;7.03;2.25;;;5.50;99.90;;;;;;5017437;28;20045;-93
2021/01/14 11:46:36;;;;;;;7.30;2.88;;;5.50;99.90;;;;;;5015434;28;20030;-94
2021/01/14 11:49:03;;;;;;;5.40;2.40;;;5.50;99.60;;;;;;5015999;28;20030;-93
2021/01/14 11:51:34;;;;;;;6.13;2.28;;;5.50;99.90;;;;;;5016284;28;20125;-93
2021/01/14 11:54:18;;;;;;;6.20;2.50;;;5.60;99.90;;;;;;5016476;28;20034;-94
2021/01/14 11:56:58;;;;;;;5.03;2.58;;;5.70;99.70;;;;;;5015961;28;20037;-94
2021/01/14 11:59:46;;;;;;;5.00;2.10;;;5.70;99.50;;;;;;5024538;28;20018;-94
2021/01/14 12:02:26;;;;;;;7.07;3.95;;;5.70;99.50;;;;;;5018661;28;20057;-95
2021/01/14 12:04:59;;;;;;;6.47;2.10;;;5.70;99.20;;;;;;5003491;28;20030;-95
2021/01/14 12:07:50;;;;;;;5.40;2.08;;;5.70;99.40;;;;;;5023031;28;20034;-96
2021/01/14 12:10:20;;;;;;;4.65;2.55;;;5.80;99.50;;;;;;5023946;28;20101;-95
2021/01/14 12:13:16;;;;;;;6.88;2.47;;;5.70;99.20;;;;;;5022774;28;20048;-94
2021/01/14 12:15:44;;;;;;;6.57;2.50;;;5.70;99.50;;;;;;5021054;28;20021;-95
2021/01/14 12:18:10;;;;;;;5.38;2.25;;;5.70;99.00;;;;;;5003014;28;20049;-94
2021/01/14 12:20:42;;;;;;;6.30;2.85;;;5.60;99.30;;;;;;5017200;28;20026;-95
2021/01/14 12:23:25;;;;;;;7.18;3.05;;;5.50;99.30;;;;;;5020610;28;20030;-92
2021/01/14 12:25:52;;;;;;;6.30;2.92;;;5.40;98.80;;;;;;5017199;28;20052;-96
2021/01/14 12:28:20;;;;;;;5.28;2.60;;;5.30;99.10;;;;;;5037021;28;20042;-95
2021/01/14 12:34:01;;;;;;;6.80;2.45;;;5.40;99.50;;;;;;5016752;28;20045;-95
2021/01/14 12:36:35;;;;;;;6.18;2.45;;;5.40;99.40;;;;;;5023275;28;20089;-95
2021/01/14 12:39:24;;;;;;;;;;;5.30;99.60;;;;;;5023902;28;20034;-96
2021/01/14 12:42:15;;;;;;;4.35;1.90;;;5.20;99.80;;;;;;5014835;28;19916;-95
2021/01/14 12:45:07;;;;;;;6.65;2.17;;;5.20;99.90;;;;;;5020513;28;20049;-95
2021/01/14 12:47:50;;;;;;;4.75;2.40;;;5.10;99.80;;;;;;5021004;28;20026;-95
2021/01/14 12:50:16;;;;;;;6.43;2.40;;;5.00;99.90;;;;;;5007075;28;20088;-95
2021/01/14 12:53:00;;;;;;;4.53;2.10;;;4.80;99.90;;;;;;5019454;28;20014;-94
2021/01/14 12:55:41;;;;;;;5.93;2.78;;;4.70;99.90;;;;;;5021352;28;20474;-95
2021/01/14 12:58:14;;;;;;;6.40;2.58;;;4.50;99.90;;;;;;5020491;28;20018;-95
2021/01/14 13:00:47;;;;;;;6.13;2.13;;;4.30;99.90;;;;;;5019919;28;20441;-94
2021/01/14 13:03:30;;;;;;;5.25;2.75;;;4.20;99.90;;;;;;5020949;28;20042;-95
2021/01/14 13:06:15;;;;;;;;;;;;;;;;;;;;;
2021/01/14 13:08:48;;;;;;;4.82;2.45;;;4.10;99.90;;;;;;5021799;28;20121;-95
2021/01/14 13:11:29;;;;;;;4.90;1.98;;;4.00;99.90;;;;;;5003269;28;20034;-96
2021/01/14 13:14:09;;;;;;;6.55;2.28;;;4.00;99.90;;;;;;5016450;28;20042;-95
2021/01/14 13:16:47;;;;;;;5.80;2.78;;;3.90;99.90;;;;;;5017395;28;20044;-95
2021/01/14 13:19:20;;;;;;;6.25;2.70;;;3.90;99.90;;;;;;5030848;28;20038;-94
2021/01/14 13:21:57;;;;;;;5.28;2.42;;;3.90;99.90;;;;;;5032944;28;20098;-96
2021/01/14 13:24:29;;;;;;;3.80;2.30;;;3.90;99.90;;;;;;5021021;28;20109;-94
2021/01/14 13:27:08;;;;;;;5.75;2.00;;;3.90;99.90;;;;;;5020448;28;20485;-93
2021/01/14 13:29:34;;;;;;;5.82;2.65;;;3.90;99.90;;;;;;5035124;28;20094;-95
2021/01/14 13:32:19;;;;;;;5.50;2.67;;;3.80;99.90;;;;;;5035523;28;20037;-95
2021/01/14 13:35:00;;;;;;;5.18;2.28;;;3.80;99.90;;;;;;5031028;28;20139;-95
2021/01/14 13:37:58;;;;;;;5.85;2.20;;;3.70;99.90;;;;;;5036064;28;20444;-95
2021/01/14 13:40:41;;;;;;;4.40;2.22;;;3.60;99.90;;;;;;5035072;28;20047;-96
2021/01/14 13:43:13;;;;;;;5.07;2.35;;;3.60;99.90;;;;;;5040477;28;20033;-94
2021/01/14 13:46:18;;;;;;;5.28;2.78;;;3.50;99.90;;;;;;5018860;28;20136;-93
2021/01/14 13:49:21;;;;;;;5.85;2.65;;;3.50;99.90;;;;;;5023905;28;20064;-93
2021/01/14 13:51:51;;;;;;;5.32;2.55;;;3.40;99.90;;;;;;5034852;28;20026;-96
2021/01/14 13:54:22;;;;;;;5.40;2.50;;;3.40;99.90;;;;;;5018468;28;20363;-96
2021/01/14 13:56:58;;;;;;;4.65;2.40;;;3.40;99.90;;;;;;5022523;28;20076;-96
2021/01/14 13:59:33;;;;;;;4.28;2.30;;;3.40;99.90;;;;;;5029025;28;20030;-95
2021/01/14 14:02:26;;;;;;;6.38;2.30;;;3.40;99.90;;;;;;5019039;28;20030;-95
2021/01/14 14:05:32;;;;;;;4.70;2.70;;;3.40;99.90;;;;;;5015549;28;20073;-95
2021/01/14 14:12:33;;;;;;;;;;;;;;;;;;;;;
2021/01/14 14:15:59;;;;;;;4.93;2.50;;;3.50;99.90;;;;;;4941206;29;20132;-94
2021/01/14 14:22:15;;;;;;;;;;;;;;;;;;;;;
2021/01/14 14:29:09;;;;;;;6.18;3.35;;;3.60;99.90;;;;;;4947535;29;20047;-94
2021/01/14 14:41:52;;;;;;;8.55;3.67;;;3.40;99.90;;;;;;5018249;28;20093;-94
2021/01/14 14:47:38;;;;;;;6.82;3.97;;;3.40;99.90;;;;;;4977385;28;20042;-94
2021/01/14 14:54:00;;;;;;;8.65;5.32;;;3.40;99.90;;;;;;5003122;28;20486;-95
2021/01/14 14:56:57;;;;;;;9.15;5.70;;;3.30;99.90;;;;;;4947404;29;20075;-94
2021/01/14 14:59:29;;;;;;;8.93;5.75;;;3.30;99.90;;;;;;4940304;28;20114;-95
2021/01/14 15:02:30;;;;;;;12.32;7.85;;;3.30;99.90;;;;;;4992716;28;20041;-93
2021/01/14 15:05:32;;;;;;;11.93;7.35;;;3.20;99.90;;;;;;5008937;28;20572;-94
2021/01/14 15:08:20;;;;;;;12.65;8.10;;;3.20;99.90;;;;;;5007470;28;20046;-95
2021/01/14 15:11:22;;;;;;;;;;;;;;;;;;;;;
2021/01/14 15:14:12;;;;;;;10.25;6.57;;;3.00;99.90;;;;;;4985722;28;20129;-94
2021/01/14 15:17:06;;;;;;;10.65;6.35;;;3.00;99.90;;;;;;4958049;28;20658;-95
2021/01/14 15:20:10;;;;;;;9.68;5.68;;;2.90;99.90;;;;;;4979472;28;20066;-95
2021/01/14 15:23:31;;;;;;;6.95;4.90;;;2.90;99.90;;;;;;4982695;28;20480;-95
2021/01/14 15:29:23;;;;;;;9.77;4.60;;;2.80;99.90;;;;;;4985494;28;20498;-95
2021/01/14 15:35:38;;;;;;;7.28;4.28;;;2.70;99.90;;;;;;4961302;28;19910;-94
2021/01/14 15:45:03;;;;;;;8.02;4.25;;;2.60;99.90;;;;;;5002035;28;20061;-94
2021/01/14 15:50:43;;;;;;;7.13;3.60;;;2.60;99.90;;;;;;4989810;28;20372;-95
2021/01/14 15:53:46;;;;;;;;;;;;;;;;;;;;;
2021/01/14 15:56:40;;;;;;;9.43;4.28;;;2.50;99.90;;;;;;5006342;28;20046;-96